createdAt,value
2024-03-09T00:00:59.026Z,25.18
2024-03-09T00:01:59.098Z,25.61
2024-03-09T00:02:59.097Z,25.47
2024-03-09T00:03:59.109Z,25.60
2024-03-09T00:04:59.360Z,25.70
2024-03-09T00:05:59.179Z,25.28
2024-03-09T00:06:59.252Z,25.51
2024-03-09T00:07:59.505Z,25.37
2024-03-09T00:08:59.275Z,25.35
2024-03-09T00:09:59.278Z,25.56
2024-03-09T00:10:59.415Z,25.49
2024-03-09T00:11:59.374Z,25.41
2024-03-09T00:12:59.354Z,25.22
2024-03-09T00:13:59.428Z,25.48
2024-03-09T00:14:59.418Z,25.57
2024-03-09T00:15:59.453Z,25.53
2024-03-09T00:16:59.573Z,25.62
2024-03-09T00:17:59.573Z,25.64
2024-03-09T00:18:59.573Z,25.60
2024-03-09T00:19:59.728Z,25.56
2024-03-09T00:20:59.618Z,25.63
2024-03-09T00:21:59.678Z,25.43
2024-03-09T00:22:59.842Z,25.45
2024-03-09T00:23:59.664Z,25.26
2024-03-09T00:24:59.722Z,25.39
2024-03-09T00:25:59.815Z,25.45
2024-03-09T00:26:59.822Z,25.65
2024-03-09T00:27:59.825Z,25.63
2024-03-09T00:28:59.863Z,25.58
2024-03-09T00:29:59.872Z,25.56
2024-03-09T00:30:59.924Z,25.53
2024-03-09T00:31:59.957Z,25.63
2024-03-09T00:33:00.015Z,25.69
2024-03-09T00:33:59.974Z,25.48
2024-03-09T00:35:00.060Z,25.05
2024-03-09T00:36:00.060Z,25.50
2024-03-09T00:37:00.144Z,25.42
2024-03-09T00:38:00.562Z,25.23
2024-03-09T00:39:00.165Z,25.50
2024-03-09T00:40:00.261Z,25.53
2024-03-09T00:41:00.288Z,25.19
2024-03-09T00:42:00.407Z,25.17
2024-03-09T00:43:00.498Z,25.60
2024-03-09T00:44:00.452Z,25.39
2024-03-09T00:45:00.475Z,25.38
2024-03-09T00:46:00.476Z,25.60
2024-03-09T00:47:00.563Z,25.67
2024-03-09T00:48:00.653Z,25.32
2024-03-09T00:49:00.630Z,25.63
2024-03-09T00:50:00.723Z,25.76
2024-03-09T00:51:00.701Z,25.47
2024-03-09T00:52:00.796Z,25.35
2024-03-09T00:53:00.912Z,25.32
2024-03-09T00:54:00.884Z,25.46
2024-03-09T00:55:00.941Z,25.72
2024-03-09T00:56:01.073Z,25.79
2024-03-09T00:57:01.012Z,25.60
2024-03-09T00:58:01.056Z,25.85
2024-03-09T00:59:03.042Z,25.89
2024-03-09T01:00:01.189Z,25.43
2024-03-09T01:01:01.229Z,25.64
2024-03-09T01:02:01.349Z,25.76
2024-03-09T01:03:01.352Z,25.76
2024-03-09T01:04:01.417Z,25.79
2024-03-09T01:05:01.530Z,25.70
2024-03-09T01:06:01.529Z,25.50
2024-03-09T01:07:01.581Z,25.71
2024-03-09T01:08:01.631Z,25.38
2024-03-09T01:09:01.768Z,25.57
2024-03-09T01:10:01.707Z,25.80
2024-03-09T01:11:01.915Z,25.90
2024-03-09T01:12:01.930Z,25.80
2024-03-09T01:13:01.836Z,25.81
2024-03-09T01:14:02.159Z,25.58
2024-03-09T01:15:01.942Z,25.32
2024-03-09T01:16:02.013Z,25.39
2024-03-09T01:17:02.122Z,25.44
2024-03-09T01:18:02.148Z,25.77
2024-03-09T01:19:02.201Z,25.88
2024-03-09T01:20:02.384Z,25.69
2024-03-09T01:21:02.265Z,25.66
2024-03-09T01:22:02.303Z,25.81
2024-03-09T01:23:02.440Z,25.83
2024-03-09T01:24:02.411Z,25.77
2024-03-09T01:25:02.493Z,25.57
2024-03-09T01:26:02.601Z,25.76
2024-03-09T01:27:02.571Z,25.76
2024-03-09T01:28:02.593Z,25.39
2024-03-09T01:29:02.854Z,25.22
2024-03-09T01:30:03.057Z,25.41
2024-03-09T01:31:02.793Z,25.32
2024-03-09T01:32:02.906Z,25.47
2024-03-09T01:33:02.854Z,25.55
2024-03-09T01:34:02.883Z,25.24
2024-03-09T01:35:03.053Z,25.55
2024-03-09T01:36:02.964Z,25.52
2024-03-09T01:37:03.027Z,25.44
2024-03-09T01:38:03.087Z,25.37
2024-03-09T01:39:03.132Z,25.37
2024-03-09T01:40:03.207Z,25.43
2024-03-09T01:41:03.315Z,25.42
2024-03-09T01:42:03.305Z,25.62
2024-03-09T01:43:03.312Z,25.70
2024-03-09T01:44:03.401Z,25.58
2024-03-09T01:45:03.434Z,25.41
2024-03-09T01:46:03.476Z,25.55
2024-03-09T01:47:03.645Z,25.30
2024-03-09T01:48:03.640Z,25.22
2024-03-09T01:49:03.619Z,25.33
2024-03-09T01:50:03.816Z,25.17
2024-03-09T01:51:03.746Z,25.15
2024-03-09T01:52:03.790Z,25.40
2024-03-09T01:53:03.856Z,25.45
2024-03-09T01:54:03.900Z,25.38
2024-03-09T01:55:03.955Z,25.59
2024-03-09T01:56:04.087Z,25.57
2024-03-09T01:57:04.097Z,25.19
2024-03-09T01:58:04.128Z,25.10
2024-03-09T01:59:04.239Z,25.30
2024-03-09T02:00:04.353Z,25.31
2024-03-09T02:01:04.349Z,25.30
2024-03-09T02:02:04.429Z,25.43
2024-03-09T02:03:04.441Z,25.19
2024-03-09T02:04:04.526Z,25.41
2024-03-09T02:05:04.890Z,25.45
2024-03-09T02:06:04.616Z,25.47
2024-03-09T02:07:04.695Z,25.15
2024-03-09T02:08:04.829Z,25.34
2024-03-09T02:09:04.813Z,25.34
2024-03-09T02:10:04.922Z,25.23
2024-03-09T02:11:05.050Z,25.57
2024-03-09T02:12:05.044Z,25.52
2024-03-09T02:13:05.094Z,25.12
2024-03-09T02:14:05.128Z,25.07
2024-03-09T02:15:05.210Z,24.99
2024-03-09T02:16:05.277Z,25.08
2024-03-09T02:17:05.396Z,25.04
2024-03-09T02:18:05.415Z,24.89
2024-03-09T02:19:05.448Z,25.08
2024-03-09T02:20:05.499Z,25.25
2024-03-09T02:21:05.551Z,25.14
2024-03-09T02:22:05.618Z,24.99
2024-03-09T02:23:05.761Z,25.31
2024-03-09T02:24:05.724Z,25.21
2024-03-09T02:25:05.775Z,24.99
2024-03-09T02:26:05.936Z,24.97
2024-03-09T02:27:05.922Z,24.96
2024-03-09T02:28:05.974Z,25.07
2024-03-09T02:29:06.114Z,24.96
2024-03-09T02:30:06.086Z,25.08
2024-03-09T02:31:06.163Z,25.16
2024-03-09T02:33:06.326Z,25.00
2024-03-09T02:34:06.366Z,24.96
2024-03-09T02:35:06.418Z,25.07
2024-03-09T02:36:06.425Z,25.03
2024-03-09T02:37:06.498Z,24.93
2024-03-09T02:38:06.589Z,24.95
2024-03-09T02:39:06.667Z,25.03
2024-03-09T02:40:06.694Z,24.92
2024-03-09T02:41:06.780Z,25.08
2024-03-09T02:42:06.805Z,25.09
2024-03-09T02:43:06.890Z,25.38
2024-03-09T02:44:06.958Z,25.37
2024-03-09T02:45:07.026Z,25.15
2024-03-09T02:46:07.108Z,25.20
2024-03-09T02:47:07.215Z,25.09
2024-03-09T02:48:07.210Z,25.07
2024-03-09T02:49:07.259Z,25.27
2024-03-09T02:50:07.502Z,25.03
2024-03-09T02:51:07.367Z,25.05
2024-03-09T02:52:07.427Z,25.44
2024-03-09T02:53:07.585Z,25.04
2024-03-09T02:54:07.419Z,25.05
2024-03-09T02:55:07.490Z,25.15
2024-03-09T02:56:07.517Z,25.05
2024-03-09T02:57:07.462Z,25.03
2024-03-09T02:58:07.415Z,24.98
2024-03-09T02:59:07.507Z,24.97
2024-03-09T03:00:07.456Z,25.07
2024-03-09T03:01:07.529Z,25.14
2024-03-09T03:02:07.560Z,24.98
2024-03-09T03:03:07.460Z,24.92
2024-03-09T03:04:07.429Z,24.97
2024-03-09T03:05:07.550Z,25.25
2024-03-09T03:06:07.453Z,25.09
2024-03-09T03:07:07.446Z,25.15
2024-03-09T03:08:07.556Z,24.98
2024-03-09T03:09:07.478Z,24.97
2024-03-09T03:10:07.489Z,25.13
2024-03-09T03:11:07.583Z,25.05
2024-03-09T03:12:07.471Z,25.15
2024-03-09T03:13:07.536Z,25.27
2024-03-09T03:14:07.620Z,25.00
2024-03-09T03:15:07.514Z,24.93
2024-03-09T03:16:07.473Z,25.01
2024-03-09T03:17:07.595Z,25.04
2024-03-09T03:18:07.479Z,24.94
2024-03-09T03:19:07.950Z,24.96
2024-03-09T03:20:07.537Z,24.98
2024-03-09T03:21:07.488Z,24.93
2024-03-09T03:22:07.516Z,24.89
2024-03-09T03:23:07.568Z,24.93
2024-03-09T03:24:07.467Z,24.92
2024-03-09T03:25:07.459Z,24.98
2024-03-09T03:26:10.442Z,24.93
2024-03-09T03:27:07.506Z,24.86
2024-03-09T03:28:07.568Z,24.90
2024-03-09T03:29:07.587Z,24.89
2024-03-09T03:30:07.479Z,24.94
2024-03-09T03:31:07.514Z,24.93
2024-03-09T03:32:07.528Z,24.85
2024-03-09T03:33:07.780Z,24.87
2024-03-09T03:34:07.526Z,24.86
2024-03-09T03:35:07.544Z,24.90
2024-03-09T03:36:07.535Z,24.82
2024-03-09T03:37:07.563Z,24.87
2024-03-09T03:38:07.938Z,24.87
2024-03-09T03:39:07.512Z,24.87
2024-03-09T03:40:07.512Z,24.94
2024-03-09T03:41:07.743Z,25.04
2024-03-09T03:42:07.539Z,25.04
2024-03-09T03:43:07.523Z,24.97
2024-03-09T03:44:07.603Z,24.87
2024-03-09T03:45:07.725Z,24.87
2024-03-09T03:46:07.672Z,24.90
2024-03-09T03:47:07.836Z,24.94
2024-03-09T03:48:07.897Z,24.93
2024-03-09T03:49:07.927Z,24.95
2024-03-09T03:50:07.980Z,24.99
2024-03-09T03:51:07.998Z,24.98
2024-03-09T03:52:08.075Z,24.97
2024-03-09T03:53:08.335Z,24.94
2024-03-09T03:54:08.224Z,24.97
2024-03-09T03:55:08.302Z,24.91
2024-03-09T03:56:08.428Z,24.91
2024-03-09T03:57:08.399Z,24.91
2024-03-09T03:58:08.530Z,24.93
2024-03-09T03:59:08.660Z,24.98
2024-03-09T04:00:08.618Z,25.01
2024-03-09T04:01:08.786Z,24.85
2024-03-09T04:02:08.902Z,24.91
2024-03-09T04:03:08.842Z,24.98
2024-03-09T04:04:08.886Z,24.90
2024-03-09T04:05:09.065Z,24.90
2024-03-09T04:06:09.049Z,24.85
2024-03-09T04:07:09.099Z,25.04
2024-03-09T04:08:09.225Z,25.10
2024-03-09T04:09:09.229Z,24.87
2024-03-09T04:10:09.306Z,24.92
2024-03-09T04:11:09.564Z,24.98
2024-03-09T04:12:09.459Z,25.02
2024-03-09T04:13:09.450Z,24.95
2024-03-09T04:14:09.557Z,24.95
2024-03-09T04:15:09.584Z,24.90
2024-03-09T04:16:09.621Z,24.88
2024-03-09T04:17:09.767Z,24.94
2024-03-09T04:18:09.788Z,24.95
2024-03-09T04:19:09.800Z,24.97
2024-03-09T04:20:09.952Z,24.95
2024-03-09T04:21:09.970Z,24.89
2024-03-09T04:22:09.950Z,24.92
2024-03-09T04:23:09.996Z,24.88
2024-03-09T04:24:10.025Z,24.96
2024-03-09T04:25:10.221Z,24.92
2024-03-09T04:26:10.176Z,24.96
2024-03-09T04:27:10.251Z,24.96
2024-03-09T04:28:10.216Z,24.89
2024-03-09T04:29:10.336Z,24.89
2024-03-09T04:30:10.374Z,24.87
2024-03-09T04:31:17.588Z,25.04
2024-03-09T04:32:17.669Z,25.05
2024-03-09T04:33:17.594Z,25.06
2024-03-09T04:34:17.603Z,24.95
2024-03-09T04:35:17.631Z,24.99
2024-03-09T04:36:17.718Z,24.94
2024-03-09T04:37:17.613Z,24.99
2024-03-09T04:38:17.896Z,24.99
2024-03-09T04:39:17.596Z,25.05
2024-03-09T04:40:17.655Z,24.94
2024-03-09T04:41:17.647Z,24.96
2024-03-09T04:42:17.619Z,24.96
2024-03-09T04:43:17.597Z,24.94
2024-03-09T04:44:22.410Z,24.98
2024-03-09T04:45:18.605Z,24.88
2024-03-09T04:46:17.615Z,24.84
2024-03-09T04:47:17.607Z,24.92
2024-03-09T04:48:17.638Z,24.94
2024-03-09T04:49:17.638Z,24.93
2024-03-09T04:50:17.660Z,25.02
2024-03-09T04:51:17.624Z,24.91
2024-03-09T04:52:17.645Z,24.98
2024-03-09T04:53:18.270Z,24.93
2024-03-09T04:54:17.653Z,24.96
2024-03-09T04:55:17.613Z,24.99
2024-03-09T04:56:17.765Z,25.03
2024-03-09T04:57:17.724Z,25.00
2024-03-09T04:58:17.761Z,24.98
2024-03-09T04:59:17.902Z,24.95
2024-03-09T05:00:17.890Z,24.93
2024-03-09T05:01:17.967Z,24.96
2024-03-09T05:02:18.023Z,25.04
2024-03-09T05:03:18.052Z,25.03
2024-03-09T05:04:18.111Z,24.93
2024-03-09T05:05:18.145Z,24.93
2024-03-09T05:06:18.241Z,24.96
2024-03-09T05:07:18.260Z,24.99
2024-03-09T05:08:18.359Z,24.88
2024-03-09T05:09:18.413Z,24.88
2024-03-09T05:10:18.456Z,24.89
2024-03-09T05:11:18.523Z,24.95
2024-03-09T05:12:18.518Z,24.95
2024-03-09T05:13:18.564Z,24.92
2024-03-09T05:14:18.648Z,24.89
2024-03-09T05:15:18.697Z,24.92
2024-03-09T05:16:18.750Z,24.93
2024-03-09T05:17:18.828Z,24.96
2024-03-09T05:18:18.944Z,24.96
2024-03-09T05:19:18.918Z,24.93
2024-03-09T05:20:18.990Z,24.89
2024-03-09T05:21:19.044Z,24.95
2024-03-09T05:22:19.100Z,24.92
2024-03-09T05:23:19.210Z,24.97
2024-03-09T05:24:19.232Z,24.96
2024-03-09T05:25:19.258Z,24.89
2024-03-09T05:26:19.348Z,24.92
2024-03-09T05:27:19.381Z,24.87
2024-03-09T05:28:19.458Z,24.92
2024-03-09T05:29:19.501Z,24.87
2024-03-09T05:30:19.627Z,24.93
2024-03-09T05:31:19.616Z,24.86
2024-03-09T05:32:19.666Z,24.93
2024-03-09T05:33:19.798Z,24.89
2024-03-09T05:34:19.800Z,24.96
2024-03-09T05:35:19.848Z,24.89
2024-03-09T05:36:19.915Z,24.90
2024-03-09T05:37:19.963Z,24.96
2024-03-09T05:38:20.056Z,24.86
2024-03-09T05:39:20.052Z,24.95
2024-03-09T05:40:20.161Z,24.95
2024-03-09T05:41:20.185Z,24.90
2024-03-09T05:42:20.210Z,24.92
2024-03-09T05:43:20.277Z,24.90
2024-03-09T05:44:20.325Z,24.92
2024-03-09T05:45:20.379Z,24.95
2024-03-09T05:46:20.418Z,24.93
2024-03-09T05:47:20.501Z,24.93
2024-03-09T05:48:20.641Z,24.97
2024-03-09T05:49:20.614Z,24.95
2024-03-09T05:50:20.656Z,24.90
2024-03-09T05:51:20.749Z,24.89
2024-03-09T05:52:20.788Z,24.97
2024-03-09T05:53:20.921Z,24.89
2024-03-09T05:54:20.884Z,24.87
2024-03-09T05:55:20.979Z,24.98
2024-03-09T05:56:21.081Z,24.93
2024-03-09T05:57:21.041Z,24.92
2024-03-09T05:58:21.141Z,24.86
2024-03-09T05:59:21.163Z,24.89
2024-03-09T06:00:21.266Z,24.90
2024-03-09T06:01:21.328Z,24.87
2024-03-09T06:02:21.416Z,24.89
2024-03-09T06:03:21.420Z,24.86
2024-03-09T06:04:21.461Z,24.97
2024-03-09T06:05:21.531Z,24.93
2024-03-09T06:06:21.597Z,24.89
2024-03-09T06:07:21.658Z,24.89
2024-03-09T06:08:21.738Z,24.92
2024-03-09T06:09:21.776Z,24.96
2024-03-09T06:10:21.823Z,24.90
2024-03-09T06:11:21.931Z,24.87
2024-03-09T06:12:22.086Z,24.87
2024-03-09T06:13:21.980Z,24.96
2024-03-09T06:14:22.014Z,24.90
2024-03-09T06:15:22.089Z,24.89
2024-03-09T06:16:22.124Z,24.89
2024-03-09T06:17:22.155Z,24.87
2024-03-09T06:18:22.222Z,24.90
2024-03-09T06:19:22.307Z,24.89
2024-03-09T06:20:22.348Z,24.88
2024-03-09T06:21:22.436Z,24.89
2024-03-09T06:22:22.474Z,24.92
2024-03-09T06:23:22.521Z,24.88
2024-03-09T06:24:22.604Z,24.84
2024-03-09T06:25:22.642Z,24.82
2024-03-09T06:26:22.674Z,24.85
2024-03-09T06:27:22.701Z,24.85
2024-03-09T06:28:22.818Z,24.85
2024-03-09T06:29:22.951Z,24.88
2024-03-09T06:30:25.619Z,24.80
2024-03-09T06:31:22.880Z,24.86
2024-03-09T06:32:22.872Z,24.88
2024-03-09T06:33:22.925Z,24.88
2024-03-09T06:34:22.912Z,24.84
2024-03-09T06:35:22.897Z,24.86
2024-03-09T06:36:22.914Z,24.92
2024-03-09T06:37:22.901Z,24.89
2024-03-09T06:38:22.917Z,24.92
2024-03-09T06:39:22.938Z,24.86
2024-03-09T06:40:22.915Z,24.90
2024-03-09T06:41:24.737Z,24.88
2024-03-09T06:42:22.913Z,24.90
2024-03-09T06:43:22.906Z,24.90
2024-03-09T06:44:22.976Z,24.82
2024-03-09T06:45:22.931Z,24.85
2024-03-09T06:46:22.899Z,24.84
2024-03-09T06:47:22.944Z,24.82
2024-03-09T06:48:22.918Z,24.80
2024-03-09T06:49:22.955Z,24.74
2024-03-09T06:50:23.072Z,24.82
2024-03-09T06:51:22.923Z,24.69
2024-03-09T06:52:22.925Z,24.74
2024-03-09T06:53:22.992Z,24.69
2024-03-09T06:54:22.954Z,24.62
2024-03-09T06:55:23.013Z,24.64
2024-03-09T06:56:23.028Z,24.56
2024-03-09T06:57:22.928Z,24.55
2024-03-09T06:58:22.957Z,24.49
2024-03-09T06:59:22.922Z,24.42
2024-03-09T07:00:22.987Z,24.30
2024-03-09T07:01:23.000Z,24.32
2024-03-09T07:02:23.006Z,24.18
2024-03-09T07:03:22.958Z,24.11
2024-03-09T07:04:22.924Z,24.02
2024-03-09T07:05:23.034Z,23.97
2024-03-09T07:06:22.972Z,23.90
2024-03-09T07:07:22.943Z,23.78
2024-03-09T07:08:23.081Z,23.72
2024-03-09T07:09:22.942Z,23.60
2024-03-09T07:10:22.941Z,23.53
2024-03-09T07:11:23.018Z,23.32
2024-03-09T07:12:22.968Z,23.31
2024-03-09T07:13:22.965Z,23.19
2024-03-09T07:14:22.957Z,23.05
2024-03-09T07:15:22.965Z,22.80
2024-03-09T07:16:22.998Z,22.70
2024-03-09T07:17:22.955Z,22.56
2024-03-09T07:18:23.018Z,22.33
2024-03-09T07:19:22.970Z,22.23
2024-03-09T07:20:23.070Z,22.03
2024-03-09T07:21:22.978Z,21.93
2024-03-09T07:22:23.036Z,21.71
2024-03-09T07:23:23.064Z,21.64
2024-03-09T07:24:22.993Z,21.39
2024-03-09T07:25:22.992Z,21.22
2024-03-09T07:26:23.048Z,21.11
2024-03-09T07:27:22.981Z,21.00
2024-03-09T07:28:23.019Z,20.85
2024-03-09T07:29:23.046Z,20.68
2024-03-09T07:30:23.040Z,20.57
2024-03-09T07:31:23.009Z,20.50
2024-03-09T07:32:23.138Z,20.36
2024-03-09T07:33:23.067Z,20.28
2024-03-09T07:34:22.992Z,20.21
2024-03-09T07:35:23.018Z,20.00
2024-03-09T07:36:23.003Z,19.90
2024-03-09T07:37:25.202Z,19.90
2024-03-09T07:38:23.139Z,19.69
2024-03-09T07:39:23.132Z,19.62
2024-03-09T07:40:23.210Z,19.44
2024-03-09T07:41:23.177Z,19.32
2024-03-09T07:42:23.179Z,19.23
2024-03-09T07:43:23.176Z,19.11
2024-03-09T07:44:23.259Z,19.02
2024-03-09T07:45:23.241Z,18.88
2024-03-09T07:46:23.274Z,18.84
2024-03-09T07:47:23.392Z,18.74
2024-03-09T07:48:23.438Z,18.66
2024-03-09T07:49:23.513Z,18.71
2024-03-09T07:50:23.887Z,18.94
2024-03-09T07:51:23.638Z,19.25
2024-03-09T07:52:23.628Z,19.65
2024-03-09T07:53:23.654Z,19.82
2024-03-09T07:54:23.739Z,20.06
2024-03-09T07:55:23.792Z,20.28
2024-03-09T07:56:23.937Z,20.46
2024-03-09T07:57:23.854Z,20.57
2024-03-09T07:58:26.785Z,20.79
2024-03-09T07:59:23.900Z,21.02
2024-03-09T08:00:23.895Z,21.13
2024-03-09T08:01:23.959Z,21.23
2024-03-09T08:02:23.973Z,21.33
2024-03-09T08:03:24.166Z,21.44
2024-03-09T08:04:23.967Z,21.54
2024-03-09T08:05:23.923Z,21.63
2024-03-09T08:06:23.918Z,21.74
2024-03-09T08:07:23.935Z,21.81
2024-03-09T08:08:24.002Z,21.84
2024-03-09T08:09:23.948Z,21.97
2024-03-09T08:10:23.948Z,22.10
2024-03-09T08:11:24.106Z,22.20
2024-03-09T08:12:23.957Z,22.33
2024-03-09T08:13:23.929Z,22.37
2024-03-09T08:14:23.952Z,22.53
2024-03-09T08:15:23.964Z,22.66
2024-03-09T08:16:23.944Z,22.81
2024-03-09T08:17:23.945Z,22.81
2024-03-09T08:18:24.300Z,22.85
2024-03-09T08:19:23.980Z,22.83
2024-03-09T08:20:24.809Z,22.90
2024-03-09T08:21:23.983Z,22.98
2024-03-09T08:22:23.946Z,23.00
2024-03-09T08:23:23.991Z,23.06
2024-03-09T08:24:23.965Z,23.18
2024-03-09T08:25:24.011Z,23.17
2024-03-09T08:26:24.069Z,23.20
2024-03-09T08:27:23.967Z,23.29
2024-03-09T08:28:24.054Z,23.35
2024-03-09T08:29:24.002Z,23.42
2024-03-09T08:30:23.957Z,23.48
2024-03-09T08:31:23.986Z,23.46
2024-03-09T08:32:23.947Z,23.49
2024-03-09T08:33:24.035Z,23.67
2024-03-09T08:34:23.958Z,23.61
2024-03-09T08:35:24.026Z,23.64
2024-03-09T08:36:23.983Z,23.72
2024-03-09T08:37:23.978Z,23.79
2024-03-09T08:38:24.013Z,23.85
2024-03-09T08:39:24.005Z,23.91
2024-03-09T08:40:24.042Z,23.93
2024-03-09T08:41:24.135Z,23.95
2024-03-09T08:42:24.180Z,23.92
2024-03-09T08:43:24.214Z,24.00
2024-03-09T08:44:24.254Z,24.00
2024-03-09T08:45:24.358Z,24.09
2024-03-09T08:46:24.345Z,24.13
2024-03-09T08:47:24.424Z,24.20
2024-03-09T08:48:24.449Z,24.17
2024-03-09T08:49:24.511Z,24.22
2024-03-09T08:50:24.674Z,24.19
2024-03-09T08:51:24.643Z,24.20
2024-03-09T08:52:24.941Z,24.17
2024-03-09T08:53:24.763Z,24.21
2024-03-09T08:54:24.708Z,24.24
2024-03-09T08:55:25.005Z,24.27
2024-03-09T08:56:24.835Z,24.31
2024-03-09T08:57:24.868Z,24.25
2024-03-09T08:58:24.945Z,24.35
2024-03-09T08:59:25.002Z,24.35
2024-03-09T09:00:25.000Z,24.34
2024-03-09T09:01:25.139Z,24.36
2024-03-09T09:02:25.145Z,24.32
2024-03-09T09:03:25.141Z,24.30
2024-03-09T09:04:25.202Z,24.30
2024-03-09T09:05:25.217Z,24.30
2024-03-09T09:06:25.261Z,24.29
2024-03-09T09:07:25.289Z,24.26
2024-03-09T09:08:25.388Z,24.30
2024-03-09T09:09:25.340Z,24.30
2024-03-09T09:10:25.392Z,24.29
2024-03-09T09:11:25.459Z,24.28
2024-03-09T09:12:25.461Z,24.36
2024-03-09T09:13:25.463Z,24.40
2024-03-09T09:14:25.453Z,24.39
2024-03-09T09:15:25.475Z,24.34
2024-03-09T09:16:25.627Z,24.35
2024-03-09T09:17:25.557Z,24.39
2024-03-09T09:18:25.528Z,24.38
2024-03-09T09:19:25.548Z,24.44
2024-03-09T09:20:25.985Z,24.42
2024-03-09T09:21:25.571Z,24.47
2024-03-09T09:22:25.569Z,24.40
2024-03-09T09:23:25.607Z,24.51
2024-03-09T09:24:25.594Z,24.46
2024-03-09T09:25:29.417Z,24.50
2024-03-09T09:26:26.724Z,24.51
2024-03-09T09:27:25.605Z,24.54
2024-03-09T09:28:25.597Z,24.50
2024-03-09T09:29:25.598Z,24.58
2024-03-09T09:30:25.603Z,24.61
2024-03-09T09:31:25.575Z,24.58
2024-03-09T09:32:25.713Z,24.67
2024-03-09T09:33:25.648Z,24.62
2024-03-09T09:34:25.620Z,24.68
2024-03-09T09:35:25.670Z,24.64
2024-03-09T09:36:25.580Z,24.68
2024-03-09T09:37:25.581Z,24.72
2024-03-09T09:38:25.639Z,24.73
2024-03-09T09:39:25.663Z,24.68
2024-03-09T09:40:25.653Z,24.68
2024-03-09T09:41:25.608Z,24.67
2024-03-09T09:42:25.596Z,24.73
2024-03-09T09:43:25.663Z,24.68
2024-03-09T09:44:25.620Z,24.77
2024-03-09T09:45:25.678Z,24.72
2024-03-09T09:46:25.608Z,24.72
2024-03-09T09:47:25.652Z,24.73
2024-03-09T09:48:25.629Z,24.82
2024-03-09T09:49:25.616Z,24.70
2024-03-09T09:50:25.741Z,24.63
2024-03-09T09:51:25.680Z,24.76
2024-03-09T09:52:25.696Z,24.83
2024-03-09T09:53:25.751Z,24.83
2024-03-09T09:54:25.799Z,24.82
2024-03-09T09:55:25.935Z,24.79
2024-03-09T09:56:25.956Z,24.83
2024-03-09T09:57:26.043Z,24.82
2024-03-09T09:58:26.061Z,24.86
2024-03-09T09:59:26.187Z,24.85
2024-03-09T10:00:26.173Z,24.86
2024-03-09T10:01:26.262Z,24.85
2024-03-09T10:02:26.473Z,24.87
2024-03-09T10:03:26.387Z,24.85
2024-03-09T10:04:26.460Z,24.89
2024-03-09T10:05:26.628Z,24.91
2024-03-09T10:06:26.594Z,24.87
2024-03-09T10:07:26.643Z,24.93
2024-03-09T10:08:26.721Z,25.01
2024-03-09T10:09:26.825Z,24.94
2024-03-09T10:10:26.811Z,25.00
2024-03-09T10:11:26.969Z,25.05
2024-03-09T10:12:26.990Z,25.01
2024-03-09T10:13:27.040Z,25.02
2024-03-09T10:14:27.146Z,25.05
2024-03-09T10:15:27.200Z,25.09
2024-03-09T10:16:27.289Z,25.08
2024-03-09T10:17:27.388Z,25.01
2024-03-09T10:18:27.403Z,25.09
2024-03-09T10:19:27.494Z,25.09
2024-03-09T10:20:27.546Z,25.07
2024-03-09T10:21:27.631Z,25.04
2024-03-09T10:22:27.700Z,25.08
2024-03-09T10:23:27.861Z,25.08
2024-03-09T10:24:27.823Z,25.10
2024-03-09T10:25:27.927Z,25.07
2024-03-09T10:26:27.963Z,25.11
2024-03-09T10:27:29.712Z,25.05
2024-03-09T10:28:28.140Z,25.11
2024-03-09T10:29:28.178Z,25.10
2024-03-09T10:30:28.306Z,25.07
2024-03-09T10:31:28.302Z,25.11
2024-03-09T10:32:28.400Z,25.09
2024-03-09T10:33:28.501Z,25.09
2024-03-09T10:34:28.519Z,25.09
2024-03-09T10:35:28.786Z,25.14
2024-03-09T10:36:28.731Z,25.15
2024-03-09T10:37:28.739Z,25.14
2024-03-09T10:38:28.774Z,25.13
2024-03-09T10:39:28.825Z,25.09
2024-03-09T10:40:28.925Z,25.16
2024-03-09T10:41:28.983Z,25.13
2024-03-09T10:42:29.025Z,25.13
2024-03-09T10:43:29.092Z,25.13
2024-03-09T10:44:29.174Z,25.12
2024-03-09T10:45:29.259Z,25.12
2024-03-09T10:46:29.277Z,25.14
2024-03-09T10:47:29.332Z,25.01
2024-03-09T10:48:29.368Z,25.19
2024-03-09T10:49:29.426Z,25.16
2024-03-09T10:50:29.501Z,25.15
2024-03-09T10:51:29.532Z,25.15
2024-03-09T10:52:29.620Z,25.19
2024-03-09T10:53:29.634Z,25.23
2024-03-09T10:54:29.719Z,25.22
2024-03-09T10:55:29.757Z,25.24
2024-03-09T10:56:29.838Z,25.24
2024-03-09T10:57:29.889Z,25.19
2024-03-09T10:58:29.937Z,25.27
2024-03-09T10:59:30.004Z,25.30
2024-03-09T11:00:30.100Z,25.29
2024-03-09T11:01:30.167Z,25.31
2024-03-09T11:02:30.124Z,25.29
2024-03-09T11:03:30.155Z,25.31
2024-03-09T11:04:30.230Z,25.26
2024-03-09T11:05:30.277Z,25.34
2024-03-09T11:06:30.335Z,25.30
2024-03-09T11:07:30.388Z,25.37
2024-03-09T11:08:30.423Z,25.34
2024-03-09T11:09:30.678Z,25.31
2024-03-09T11:10:30.540Z,25.38
2024-03-09T11:11:30.682Z,25.37
2024-03-09T11:12:30.628Z,25.37
2024-03-09T11:13:30.686Z,25.42
2024-03-09T11:14:30.735Z,25.43
2024-03-09T11:15:30.789Z,25.41
2024-03-09T11:16:30.900Z,25.36
2024-03-09T11:17:30.926Z,25.38
2024-03-09T11:18:30.948Z,25.40
2024-03-09T11:19:30.994Z,25.43
2024-03-09T11:20:31.031Z,25.39
2024-03-09T11:21:31.448Z,25.39
2024-03-09T11:22:31.049Z,25.33
2024-03-09T11:23:31.048Z,25.33
2024-03-09T11:24:31.230Z,25.37
2024-03-09T11:25:31.039Z,25.36
2024-03-09T11:26:31.047Z,25.42
2024-03-09T11:27:31.024Z,25.40
2024-03-09T11:28:31.078Z,25.45
2024-03-09T11:29:31.412Z,25.44
2024-03-09T11:30:31.092Z,25.46
2024-03-09T11:31:31.077Z,25.35
2024-03-09T11:32:31.160Z,25.43
2024-03-09T11:33:31.053Z,25.43
2024-03-09T11:34:31.040Z,25.39
2024-03-09T11:35:31.066Z,25.35
2024-03-09T11:36:31.057Z,25.42
2024-03-09T11:37:31.086Z,25.38
2024-03-09T11:38:31.110Z,25.39
2024-03-09T11:39:31.357Z,25.41
2024-03-09T11:40:31.073Z,25.38
2024-03-09T11:41:31.096Z,25.34
2024-03-09T11:42:31.070Z,25.37
2024-03-09T11:43:31.072Z,25.42
2024-03-09T11:44:31.069Z,25.40
2024-03-09T11:45:31.088Z,25.40
2024-03-09T11:46:31.099Z,25.45
2024-03-09T11:47:31.143Z,25.45
2024-03-09T11:48:31.193Z,25.41
2024-03-09T11:49:31.119Z,25.42
2024-03-09T11:50:31.153Z,25.47
2024-03-09T11:51:31.112Z,25.48
2024-03-09T11:52:31.112Z,25.46
2024-03-09T11:53:31.130Z,25.40
2024-03-09T11:54:31.136Z,25.37
2024-03-09T11:55:31.087Z,25.46
2024-03-09T11:56:31.089Z,25.47
2024-03-09T11:57:31.110Z,25.50
2024-03-09T11:58:31.138Z,25.50
2024-03-09T11:59:31.204Z,25.46
2024-03-09T12:00:31.130Z,25.44
2024-03-09T12:01:31.128Z,25.46
2024-03-09T12:02:31.212Z,25.46
2024-03-09T12:03:31.138Z,25.49
2024-03-09T12:04:31.157Z,25.47
2024-03-09T12:05:31.119Z,25.47
2024-03-09T12:06:31.120Z,25.49
2024-03-09T12:07:31.197Z,25.45
2024-03-09T12:08:31.173Z,25.47
2024-03-09T12:09:31.246Z,25.49
2024-03-09T12:10:31.255Z,25.46
2024-03-09T12:11:31.369Z,25.53
2024-03-09T12:12:31.265Z,25.47
2024-03-09T12:13:31.311Z,25.53
2024-03-09T12:14:31.341Z,25.46
2024-03-09T12:15:31.336Z,25.42
2024-03-09T12:16:31.363Z,25.52
2024-03-09T12:17:31.405Z,25.47
2024-03-09T12:18:31.385Z,25.45
2024-03-09T12:19:31.414Z,25.41
2024-03-09T12:20:33.030Z,25.42
2024-03-09T12:21:31.432Z,25.52
2024-03-09T12:22:31.453Z,25.48
2024-03-09T12:23:31.408Z,25.49
2024-03-09T12:24:31.440Z,25.50
2024-03-09T12:25:31.419Z,25.52
2024-03-09T12:26:34.015Z,25.52
2024-03-09T12:27:31.437Z,25.52
2024-03-09T12:28:31.448Z,25.49
2024-03-09T12:29:31.434Z,25.53
2024-03-09T12:30:31.444Z,25.48
2024-03-09T12:31:31.459Z,25.48
2024-03-09T12:32:34.689Z,25.48
2024-03-09T12:33:31.423Z,25.51
2024-03-09T12:34:31.485Z,25.49
2024-03-09T12:35:31.466Z,25.52
2024-03-09T12:36:31.471Z,25.59
2024-03-09T12:37:31.472Z,25.53
2024-03-09T12:38:33.991Z,25.56
2024-03-09T12:39:31.443Z,25.54
2024-03-09T12:40:31.464Z,25.52
2024-03-09T12:41:31.474Z,25.49
2024-03-09T12:42:31.462Z,25.54
2024-03-09T12:43:31.454Z,25.53
2024-03-09T12:44:32.155Z,25.56
2024-03-09T12:45:31.468Z,25.54
2024-03-09T12:46:31.466Z,25.52
2024-03-09T12:47:31.571Z,25.51
2024-03-09T12:48:31.438Z,25.56
2024-03-09T12:49:31.469Z,25.51
2024-03-09T12:50:31.479Z,25.47
2024-03-09T12:51:31.462Z,25.59
2024-03-09T12:52:31.487Z,25.49
2024-03-09T12:53:31.500Z,25.52
2024-03-09T12:54:31.494Z,25.52